Billstown, Arkansas
Current Conditions -  °F | °C
As of 3:53 AM on Thursday 29 Jan 2015 (Local Time) from KMWT Reporting Station
Clear Clear  
Wind Chill: 62°   Ceiling: Unl
Heat Index: 62°   Visibility: 10mi
Dew Point: 43°   Wind: 5mph
Humidity: 50%   Direction: NA
Pressure: 29.99"   Gusts: NA
Location:  34.0925°N, 93.718°W
Report Text: KMWT 290953Z AUTO VRB04KT 10SM CLR 17/06 A2999 RMK AO2 SLP150 T01670061
Loading
Personal Weather Stations






























Interactive Weather Map New forecast layout! Learn more

10-Day Weather Forecast

Advertisements
Track Severe Weather on mobile